Time;durP1;ratioP1;P1;durP2;ratioP2;P2;SDS_P1;SDS_P2;PMS_P1;PMS_P2;Temp;Humidity;BMP_temperature;BMP_pressure;BME280_temperature;BME280_humidity;BME280_pressure;Samples;Min_cycle;Max_cycle;Signal;HPM_P1;HPM_P2
2022/05/02 00:00:24;;;;;;;11.27;8.80;;;8.70;1.00;;;;;;5064641;28;20420;-58
2022/05/02 00:02:51;;;;;;;12.83;8.77;;;8.60;1.00;;;;;;5068675;28;20195;-60
2022/05/02 00:05:19;;;;;;;12.60;9.00;;;8.60;1.00;;;;;;5049208;28;20208;-59
2022/05/02 00:07:46;;;;;;;10.70;8.57;;;8.70;1.00;;;;;;5064040;28;20194;-59
2022/05/02 00:10:16;;;;;;;11.37;8.97;;;8.80;1.00;;;;;;5047709;28;20289;-59
2022/05/02 00:12:44;;;;;;;13.00;9.07;;;8.90;1.00;;;;;;5058160;28;20226;-58
2022/05/02 00:15:11;;;;;;;11.53;9.00;;;8.90;1.00;;;;;;5067436;28;20210;-61
2022/05/02 00:17:56;;;;;;;8.80;7.90;;;9.10;1.00;;;;;;5067892;28;20646;-59
2022/05/02 00:20:30;;;;;;;12.03;8.47;;;9.20;1.00;;;;;;5067128;28;20203;-59
2022/05/02 00:22:59;;;;;;;9.77;8.33;;;9.30;1.00;;;;;;5047959;28;20563;-59
2022/05/02 00:25:27;;;;;;;10.23;8.13;;;9.10;1.00;;;;;;5067212;28;20227;-59
2022/05/02 00:27:54;;;;;;;12.47;8.87;;;9.10;1.00;;;;;;5045946;28;20218;-58
2022/05/02 00:30:22;;;;;;;13.23;8.47;;;9.20;1.00;;;;;;5066671;28;20228;-58
2022/05/02 00:32:49;;;;;;;11.20;10.07;;;9.20;1.00;;;;;;5065624;28;20272;-58
2022/05/02 00:35:16;;;;;;;10.87;9.50;;;9.20;1.00;;;;;;5049135;28;20191;-58
2022/05/02 00:37:47;;;;;;;11.13;9.43;;;9.20;1.00;;;;;;5064622;28;20194;-59
2022/05/02 00:40:16;;;;;;;12.93;10.17;;;9.20;1.00;;;;;;5047554;28;20268;-59
2022/05/02 00:42:44;;;;;;;10.93;9.27;;;9.10;1.00;;;;;;5065272;28;20286;-58
2022/05/02 00:45:14;;;;;;;10.37;9.07;;;9.20;1.00;;;;;;5040678;28;20285;-58
2022/05/02 00:47:41;;;;;;;11.13;9.20;;;9.30;1.00;;;;;;5042597;28;20199;-58
2022/05/02 00:50:10;;;;;;;12.53;9.37;;;9.30;1.00;;;;;;5063396;28;20290;-58
2022/05/02 00:52:38;;;;;;;13.13;10.10;;;9.30;1.00;;;;;;5067077;28;20282;-57
2022/05/02 00:55:05;;;;;;;11.00;9.70;;;9.10;1.00;;;;;;5064647;28;20234;-58
2022/05/02 00:57:33;;;;;;;10.93;9.57;;;9.10;1.00;;;;;;5066212;28;20421;-58
2022/05/02 01:00:01;;;;;;;16.57;9.40;;;9.10;1.00;;;;;;5018949;28;20221;-58
2022/05/02 01:02:28;;;;;;;11.27;9.40;;;9.20;1.00;;;;;;5044826;28;20195;-58
2022/05/02 01:04:55;;;;;;;11.20;9.30;;;9.30;1.00;;;;;;5066436;28;20845;-58
2022/05/02 01:07:22;;;;;;;11.30;9.50;;;9.30;1.00;;;;;;5040851;28;20198;-58
2022/05/02 01:09:51;;;;;;;10.63;8.50;;;9.30;1.00;;;;;;5064719;28;20202;-58
2022/05/02 01:12:22;;;;;;;10.77;9.10;;;9.30;1.00;;;;;;5066017;28;20583;-58
2022/05/02 01:14:54;;;;;;;11.67;8.53;;;9.30;1.00;;;;;;5064686;28;20229;-59
2022/05/02 01:17:21;;;;;;;11.07;8.37;;;9.20;1.00;;;;;;5049442;28;20215;-59
2022/05/02 01:19:50;;;;;;;12.60;9.23;;;9.20;1.00;;;;;;5066550;28;20649;-58
2022/05/02 01:22:17;;;;;;;11.80;9.67;;;9.20;1.00;;;;;;5063884;28;20222;-58
2022/05/02 01:24:47;;;;;;;11.90;8.93;;;9.10;1.00;;;;;;5045808;28;20489;-58
2022/05/02 01:27:15;;;;;;;10.40;9.30;;;9.10;1.00;;;;;;5063540;28;20191;-58
2022/05/02 01:29:44;;;;;;;10.63;9.50;;;9.00;1.00;;;;;;5065142;28;20198;-57
2022/05/02 01:32:13;;;;;;;12.23;9.43;;;9.00;1.00;;;;;;5066260;28;20235;-58
2022/05/02 01:34:40;;;;;;;11.67;9.50;;;8.90;1.00;;;;;;5040796;28;20316;-58
2022/05/02 01:37:09;;;;;;;12.83;9.83;;;8.80;1.00;;;;;;5065434;28;20203;-58
2022/05/02 01:39:37;;;;;;;13.17;9.53;;;8.80;1.00;;;;;;5065519;28;20652;-58
2022/05/02 01:42:06;;;;;;;10.97;9.33;;;8.70;1.00;;;;;;5039011;28;20293;-58
2022/05/02 01:44:34;;;;;;;14.97;9.93;;;8.70;1.00;;;;;;5046795;28;20256;-57
2022/05/02 01:47:01;;;;;;;14.53;9.93;;;8.70;1.00;;;;;;5064821;28;20211;-58
2022/05/02 01:49:29;;;;;;;13.87;10.17;;;8.60;1.00;;;;;;5046059;28;20236;-59
2022/05/02 01:51:59;;;;;;;13.17;9.47;;;8.50;1.00;;;;;;5060007;28;20209;-59
2022/05/02 01:54:26;;;;;;;11.43;10.07;;;8.40;1.00;;;;;;5062391;28;20672;-60
2022/05/02 01:56:55;;;;;;;12.37;10.07;;;8.30;1.00;;;;;;5062858;28;20310;-59
2022/05/02 01:59:22;;;;;;;14.77;11.60;;;8.20;1.00;;;;;;5065335;28;20194;-58
2022/05/02 02:01:49;;;;;;;15.23;11.47;;;8.10;1.00;;;;;;5044648;28;20214;-58
2022/05/02 02:07:03;;;;;;;15.13;13.27;;;8.00;1.00;;;;;;5063586;28;20248;-57
2022/05/02 02:09:30;;;;;;;15.90;13.20;;;7.90;1.00;;;;;;5064391;28;20199;-57
2022/05/02 02:11:57;;;;;;;15.53;12.23;;;7.80;1.00;;;;;;5027145;28;20275;-57
2022/05/02 02:14:25;;;;;;;15.93;12.23;;;7.70;18.20;;;;;;5064177;28;20223;-57
2022/05/02 02:16:52;;;;;;;13.70;11.87;;;7.60;89.90;;;;;;5061901;28;20215;-58
2022/05/02 02:19:19;;;;;;;14.43;11.23;;;7.40;99.90;;;;;;5044547;28;20195;-58
2022/05/02 02:21:46;;;;;;;12.20;10.70;;;7.30;99.90;;;;;;5047383;28;20218;-57
2022/05/02 02:24:13;;;;;;;14.47;11.20;;;7.20;99.90;;;;;;5062025;28;20693;-57
2022/05/02 02:26:40;;;;;;;13.93;11.50;;;7.20;99.90;;;;;;5064043;28;20194;-57
2022/05/02 02:29:07;;;;;;;16.43;10.60;;;7.20;99.90;;;;;;5046619;28;20713;-57
2022/05/02 02:31:34;;;;;;;12.33;11.00;;;7.20;99.90;;;;;;5043409;28;20649;-57
2022/05/02 02:34:01;;;;;;;15.70;11.37;;;7.30;99.90;;;;;;5043168;28;20222;-57
2022/05/02 02:36:28;;;;;;;12.57;11.27;;;7.30;99.90;;;;;;5045651;28;20241;-58
2022/05/02 02:38:55;;;;;;;13.53;11.80;;;7.30;99.90;;;;;;5041934;28;20234;-58
2022/05/02 02:41:22;;;;;;;14.00;11.67;;;7.30;99.90;;;;;;5044651;28;20196;-58
2022/05/02 02:43:49;;;;;;;16.33;12.23;;;7.30;99.90;;;;;;5043092;28;20204;-58
2022/05/02 02:46:16;;;;;;;13.70;12.07;;;7.20;99.90;;;;;;5041880;28;20238;-58
2022/05/02 02:48:43;;;;;;;14.73;11.90;;;7.20;99.90;;;;;;5040215;28;20265;-58
2022/05/02 02:51:10;;;;;;;14.37;11.93;;;7.20;99.90;;;;;;5050051;28;20547;-58
2022/05/02 02:53:37;;;;;;;14.13;11.67;;;7.10;99.90;;;;;;5043925;28;20215;-59
2022/05/02 02:56:04;;;;;;;13.37;11.60;;;7.20;99.90;;;;;;5026958;28;20207;-58
2022/05/02 02:58:31;;;;;;;20.07;12.13;;;7.10;99.90;;;;;;5047945;28;20290;-57
2022/05/02 03:00:58;;;;;;;17.67;12.67;;;7.10;99.90;;;;;;5048323;28;20195;-58
2022/05/02 03:03:28;;;;;;;17.40;12.40;;;7.10;99.90;;;;;;5048407;28;20204;-58
2022/05/02 03:06:01;;;;;;;15.43;11.97;;;7.10;99.90;;;;;;5043179;28;20566;-58
2022/05/02 03:08:31;;;;;;;16.13;13.00;;;7.10;99.90;;;;;;5029411;28;20199;-58
2022/05/02 03:10:59;;;;;;;13.60;11.10;;;7.20;99.90;;;;;;5046665;28;20191;-58
2022/05/02 03:13:36;;;;;;;13.40;11.23;;;7.20;99.90;;;;;;5043815;28;20234;-58
2022/05/02 03:16:04;;;;;;;13.90;11.60;;;7.30;99.90;;;;;;5041258;28;20210;-59
2022/05/02 03:18:31;;;;;;;15.63;11.13;;;7.30;99.90;;;;;;5041826;28;20199;-59
2022/05/02 03:20:58;;;;;;;12.80;10.77;;;7.30;99.90;;;;;;5048450;28;20230;-57
2022/05/02 03:23:33;;;;;;;14.90;11.33;;;7.40;99.90;;;;;;5045183;28;20219;-57
2022/05/02 03:26:00;;;;;;;13.53;11.03;;;7.40;99.90;;;;;;5041544;28;20205;-57
2022/05/02 03:28:27;;;;;;;15.73;11.57;;;7.40;99.90;;;;;;5046170;28;20625;-58
2022/05/02 03:30:54;;;;;;;18.00;11.27;;;7.40;99.90;;;;;;5048303;28;20815;-58
2022/05/02 03:33:21;;;;;;;13.50;11.10;;;7.40;97.80;;;;;;5067435;28;20571;-57
2022/05/02 03:35:48;;;;;;;13.00;11.00;;;7.40;90.50;;;;;;5067024;28;20214;-57
2022/05/02 03:38:15;;;;;;;13.00;10.77;;;7.30;95.10;;;;;;5048891;28;20549;-57
2022/05/02 03:40:42;;;;;;;16.53;11.53;;;7.20;99.90;;;;;;5065356;28;20700;-57
2022/05/02 03:43:09;;;;;;;19.50;11.90;;;7.10;99.90;;;;;;5058096;28;20314;-57
2022/05/02 03:45:36;;;;;;;14.90;12.27;;;6.90;99.90;;;;;;5067801;28;20295;-57
2022/05/02 03:48:04;;;;;;;14.50;11.63;;;6.90;99.90;;;;;;5066730;28;20280;-57
2022/05/02 03:50:31;;;;;;;15.97;11.63;;;6.70;99.90;;;;;;5066786;28;20553;-57
2022/05/02 03:52:58;;;;;;;16.03;12.13;;;6.70;99.90;;;;;;5067151;28;20237;-57
2022/05/02 03:55:26;;;;;;;15.67;12.07;;;6.70;99.90;;;;;;5064366;28;20658;-57
2022/05/02 03:57:53;;;;;;;17.97;12.93;;;6.70;99.90;;;;;;5067310;28;20195;-58
2022/05/02 04:00:20;;;;;;;17.23;12.33;;;6.80;99.90;;;;;;5057568;28;20191;-58
2022/05/02 04:02:51;;;;;;;18.23;12.47;;;6.70;99.90;;;;;;5066541;28;20565;-58
2022/05/02 04:05:18;;;;;;;15.43;10.93;;;6.70;99.90;;;;;;5066901;28;20701;-59
2022/05/02 04:07:45;;;;;;;12.57;10.60;;;6.70;99.90;;;;;;5066310;28;20392;-57
2022/05/02 04:10:12;;;;;;;14.03;11.77;;;6.80;99.90;;;;;;5062613;28;20260;-57
2022/05/02 04:12:40;;;;;;;13.07;11.67;;;6.90;99.90;;;;;;5067951;28;20214;-58
2022/05/02 04:15:09;;;;;;;13.60;10.50;;;6.90;99.90;;;;;;5048439;28;20219;-59
2022/05/02 04:17:40;;;;;;;15.80;11.10;;;7.00;99.90;;;;;;5066787;28;20585;-57
2022/05/02 04:20:09;;;;;;;14.97;11.13;;;7.00;99.90;;;;;;5048949;28;20214;-57
2022/05/02 04:22:37;;;;;;;13.73;10.93;;;7.00;99.90;;;;;;5055542;28;20191;-57
2022/05/02 04:25:05;;;;;;;14.37;10.33;;;7.20;99.90;;;;;;5066232;28;20194;-58
2022/05/02 04:27:35;;;;;;;13.20;10.77;;;7.20;99.90;;;;;;5055215;28;20332;-58
2022/05/02 04:30:02;;;;;;;17.30;12.30;;;7.30;93.70;;;;;;5067471;28;20191;-57
2022/05/02 04:32:30;;;;;;;14.37;11.30;;;7.40;83.30;;;;;;5062402;28;20280;-57
2022/05/02 04:34:58;;;;;;;14.33;11.00;;;7.70;17.80;;;;;;5048669;28;20264;-58
2022/05/02 04:37:25;;;;;;;15.30;10.20;;;7.90;1.00;;;;;;5063457;28;20562;-58
2022/05/02 04:39:52;;;;;;;13.57;9.90;;;8.20;1.00;;;;;;5066298;28;20218;-58
2022/05/02 04:42:19;;;;;;;11.43;9.07;;;8.60;1.00;;;;;;5053504;28;20646;-58
2022/05/02 04:44:46;;;;;;;11.57;9.20;;;9.00;1.00;;;;;;5066657;28;20222;-58
2022/05/02 04:47:14;;;;;;;13.03;9.33;;;9.50;1.00;;;;;;5066530;28;20201;-57
2022/05/02 04:49:42;;;;;;;10.37;8.60;;;9.90;1.00;;;;;;5066987;28;20282;-58
2022/05/02 04:52:09;;;;;;;10.20;8.73;;;10.30;1.00;;;;;;5064663;28;20282;-57
2022/05/02 04:54:39;;;;;;;11.40;9.10;;;10.50;1.00;;;;;;5044336;28;20232;-58
2022/05/02 04:57:07;;;;;;;11.83;8.77;;;11.00;1.00;;;;;;5049813;28;20312;-57
2022/05/02 04:59:33;;;;;;;11.00;9.10;;;11.10;1.00;;;;;;5064939;28;20195;-57
2022/05/02 05:02:01;;;;;;;12.37;9.10;;;11.30;1.00;;;;;;5043469;28;20610;-57
2022/05/02 05:04:30;;;;;;;11.57;8.80;;;11.70;1.00;;;;;;5056264;28;20255;-58
2022/05/02 05:06:57;;;;;;;10.63;8.03;;;11.40;1.00;;;;;;5063463;28;20682;-57
2022/05/02 05:09:24;;;;;;;10.10;7.93;;;11.40;1.00;;;;;;5059355;28;20202;-57
2022/05/02 05:12:14;;;;;;;13.73;8.07;;;11.70;1.00;;;;;;5065047;28;20203;-58
2022/05/02 05:18:12;;;;;;;12.73;8.90;;;12.00;1.00;;;;;;5061958;28;20183;-59
2022/05/02 05:20:54;;;;;;;11.43;7.83;;;11.80;1.00;;;;;;5057775;28;21085;-59
2022/05/02 05:23:54;;;;;;;9.50;7.60;;;11.80;1.00;;;;;;5062468;28;20210;-59
2022/05/02 05:26:35;;;;;;;8.33;7.43;;;12.90;1.00;;;;;;5058974;28;20641;-58
2022/05/02 05:29:19;;;;;;;10.17;7.90;;;14.10;99.90;;;;;;5064479;28;20183;-58
2022/05/02 05:32:11;;;;;;;9.37;8.00;;;14.80;99.90;;;;;;5046706;28;20235;-57
2022/05/02 05:34:48;;;;;;;12.47;8.60;;;13.90;99.90;;;;;;5064339;28;20215;-58
2022/05/02 05:37:40;;;;;;;14.87;8.20;;;13.20;99.90;;;;;;5046927;28;20187;-58
2022/05/02 05:40:36;;;;;;;13.00;8.80;;;12.70;99.90;;;;;;5060715;28;20211;-58
2022/05/02 05:43:12;;;;;;;10.90;8.67;;;12.50;99.90;;;;;;5057380;28;20274;-58
2022/05/02 05:45:57;;;;;;;10.77;8.00;;;12.20;99.90;;;;;;5019822;28;20230;-57
2022/05/02 05:48:30;;;;;;;9.37;7.83;;;12.10;99.90;;;;;;5032254;28;20248;-58
2022/05/02 05:51:27;;;;;;;11.90;8.50;;;12.00;99.90;;;;;;5061197;28;20191;-57
2022/05/02 05:54:12;;;;;;;12.20;8.53;;;12.20;99.90;;;;;;5046958;28;20793;-57
2022/05/02 05:56:51;;;;;;;10.63;8.40;;;12.30;99.90;;;;;;5028644;28;20195;-58
2022/05/02 05:59:30;;;;;;;9.70;7.73;;;12.40;99.90;;;;;;5062489;28;20709;-57
2022/05/02 06:01:59;;;;;;;14.47;8.30;;;12.60;99.90;;;;;;5064623;28;20673;-57
2022/05/02 06:04:30;;;;;;;13.13;8.13;;;12.40;99.90;;;;;;5062066;28;20210;-57
2022/05/02 06:06:58;;;;;;;8.13;7.33;;;12.20;99.90;;;;;;5060058;28;20295;-57
2022/05/02 06:09:30;;;;;;;12.30;8.10;;;12.10;99.90;;;;;;5061487;28;20255;-57
2022/05/02 06:11:59;;;;;;;15.23;7.77;;;12.20;99.90;;;;;;5064807;28;20218;-57
2022/05/02 06:14:30;;;;;;;10.57;7.63;;;12.40;99.90;;;;;;5061418;28;20222;-57
2022/05/02 06:19:48;;;;;;;12.43;7.83;;;12.50;99.90;;;;;;5061828;28;20614;-58
2022/05/02 06:22:18;;;;;;;10.20;7.63;;;12.60;99.90;;;;;;5061344;28;20587;-57
2022/05/02 06:24:47;;;;;;;11.30;6.97;;;12.60;99.90;;;;;;5044205;28;20198;-57
2022/05/02 06:27:14;;;;;;;10.87;7.60;;;12.60;99.90;;;;;;5058523;28;20735;-57
2022/05/02 06:29:42;;;;;;;15.37;8.47;;;12.60;99.90;;;;;;5063842;28;20214;-57
2022/05/02 06:32:11;;;;;;;9.97;8.57;;;12.50;99.90;;;;;;5065818;28;20326;-57
2022/05/02 06:34:39;;;;;;;12.53;9.00;;;12.60;99.90;;;;;;5067383;28;20211;-58
2022/05/02 06:37:38;;;;;;;15.63;8.10;;;12.90;99.90;;;;;;5067123;28;20203;-58
2022/05/02 06:40:36;;;;;;;13.87;7.47;;;13.20;99.90;;;;;;5055935;28;20319;-57
2022/05/02 06:43:23;;;;;;;11.90;8.30;;;13.50;99.90;;;;;;5041174;28;20191;-57
2022/05/02 06:46:41;;;;;;;11.60;7.90;;;13.80;99.90;;;;;;5066350;28;20210;-58
2022/05/02 06:49:12;;;;;;;14.60;7.50;;;14.10;99.90;;;;;;4983284;28;20201;-57
2022/05/02 06:51:42;;;;;;;8.60;6.73;;;14.30;99.90;;;;;;5027312;28;20279;-57
2022/05/02 06:54:27;;;;;;;10.50;7.80;;;14.60;99.90;;;;;;5066460;28;20235;-57
2022/05/02 06:57:10;;;;;;;7.80;6.70;;;14.90;99.90;;;;;;5067711;28;20530;-57
2022/05/02 07:00:17;;;;;;;9.07;7.17;;;15.60;99.90;;;;;;5065555;28;20221;-57
2022/05/02 07:02:47;;;;;;;9.37;7.40;;;15.60;99.90;;;;;;5041022;28;20199;-57
2022/05/02 07:05:30;;;;;;;12.00;7.80;;;15.80;99.90;;;;;;5065135;28;20202;-57
2022/05/02 07:08:02;;;;;;;9.82;8.00;;;16.50;99.90;;;;;;5065998;28;20250;-57
2022/05/02 07:10:50;;;;;;;13.50;9.77;;;17.30;99.90;;;;;;5046893;28;20295;-57
2022/05/02 07:13:48;;;;;;;9.82;7.25;;;18.90;99.90;;;;;;5064441;28;20715;-57
2022/05/02 07:16:21;;;;;;;12.23;6.40;;;19.70;99.90;;;;;;5067780;28;20317;-57
2022/05/02 07:19:25;;;;;;;7.63;6.00;;;22.20;99.90;;;;;;5064090;28;20726;-58
2022/05/02 07:22:04;;;;;;;7.03;5.55;;;21.10;99.90;;;;;;5065749;28;20190;-57
2022/05/02 07:24:54;;;;;;;6.75;5.65;;;21.40;99.90;;;;;;5065320;28;20255;-58
2022/05/02 07:27:40;;;;;;;14.07;6.03;;;24.10;99.90;;;;;;5064831;28;20712;-57
2022/05/02 07:30:08;;;;;;;8.23;5.57;;;24.00;99.90;;;;;;5065397;28;20237;-58
2022/05/02 07:32:35;;;;;;;9.73;5.82;;;23.60;99.90;;;;;;5065602;28;20234;-59
2022/05/02 07:35:03;;;;;;;7.75;5.50;;;23.20;99.90;;;;;;5064662;28;20249;-56
2022/05/02 07:37:36;;;;;;;5.72;5.10;;;22.50;99.90;;;;;;5065764;28;20641;-58
2022/05/02 07:40:05;;;;;;;8.15;5.32;;;23.70;99.90;;;;;;5047490;28;20238;-57
2022/05/02 07:42:36;;;;;;;6.15;5.55;;;26.40;99.90;;;;;;5066389;28;20191;-58
2022/05/02 07:45:07;;;;;;;8.60;5.18;;;27.80;99.90;;;;;;5065727;28;20306;-60
2022/05/02 07:47:35;;;;;;;7.65;5.40;;;28.50;99.90;;;;;;5062814;28;20220;-60
2022/05/02 07:50:05;;;;;;;7.03;5.63;;;26.40;99.90;;;;;;5063249;28;20381;-62
2022/05/02 07:52:36;;;;;;;8.77;5.57;;;26.50;99.90;;;;;;5044740;28;20190;-57
2022/05/02 07:55:03;;;;;;;10.23;8.38;;;29.10;99.90;;;;;;5066140;28;20316;-57
2022/05/02 07:57:33;;;;;;;5.72;5.22;;;30.80;99.90;;;;;;5064324;28;20219;-57
2022/05/02 08:00:00;;;;;;;10.45;5.10;;;30.70;99.90;;;;;;5046993;28;20284;-57
2022/05/02 08:02:38;;;;;;;7.13;5.00;;;30.00;99.90;;;;;;5065087;28;20213;-57
2022/05/02 08:05:08;;;;;;;7.88;5.18;;;31.00;99.90;;;;;;5061489;28;20191;-58
2022/05/02 08:07:42;;;;;;;8.45;5.22;;;32.40;99.90;;;;;;5067057;28;20276;-58
2022/05/02 08:10:21;;;;;;;7.22;5.72;;;32.40;99.90;;;;;;5064484;28;20206;-59
2022/05/02 08:12:55;;;;;;;7.30;5.15;;;31.10;99.90;;;;;;5066169;28;21484;-58
2022/05/02 08:15:27;;;;;;;6.57;5.25;;;32.40;99.90;;;;;;5061599;28;20211;-58
2022/05/02 08:17:56;;;;;;;6.35;5.10;;;33.60;99.90;;;;;;5064013;28;20190;-58
2022/05/02 08:20:55;;;;;;;9.90;5.78;;;33.10;99.90;;;;;;5063531;28;20289;-57
2022/05/02 08:29:38;;;;;;;11.07;6.57;;;33.50;99.90;;;;;;5066019;28;20192;-58
2022/05/02 08:32:22;;;;;;;6.25;5.13;;;34.40;99.90;;;;;;5043826;28;20235;-59
2022/05/02 08:35:06;;;;;;;7.43;5.65;;;37.40;99.90;;;;;;5056570;28;20207;-58
2022/05/02 08:38:02;;;;;;;6.68;5.20;;;37.60;99.90;;;;;;5038143;28;20187;-58
2022/05/02 08:41:03;;;;;;;8.40;5.45;;;34.80;99.90;;;;;;5049110;28;20202;-58
2022/05/02 08:44:11;;;;;;;7.60;5.55;;;34.20;99.90;;;;;;5046738;28;20219;-58
2022/05/02 08:46:53;;;;;;;7.20;5.30;;;34.90;99.90;;;;;;5012542;28;20211;-58
2022/05/02 08:49:56;;;;;;;8.18;5.55;;;37.20;99.90;;;;;;5009340;28;20227;-58
2022/05/02 08:52:26;;;;;;;7.63;5.47;;;34.90;99.90;;;;;;5040621;28;20265;-58
2022/05/02 08:55:09;;;;;;;10.15;5.57;;;34.00;99.90;;;;;;5043451;28;20207;-58
2022/05/02 08:58:10;;;;;;;8.10;5.50;;;34.00;99.90;;;;;;5043794;28;20743;-59
2022/05/02 09:01:00;;;;;;;7.55;5.47;;;35.60;99.90;;;;;;5042527;28;20199;-59
2022/05/02 09:04:17;;;;;;;5.82;4.82;;;37.20;99.90;;;;;;5043230;28;20295;-59
2022/05/02 09:07:11;;;;;;;7.97;5.63;;;36.80;99.90;;;;;;4979834;28;20328;-57
2022/05/02 09:09:47;;;;;;;5.80;5.30;;;35.70;99.90;;;;;;5045621;28;20195;-58
2022/05/02 09:12:32;;;;;;;8.77;5.45;;;36.50;99.90;;;;;;5046271;28;20248;-58
2022/05/02 09:15:20;;;;;;;7.20;5.32;;;36.70;99.90;;;;;;5043185;28;20198;-57
2022/05/02 09:18:05;;;;;;;7.97;5.45;;;35.60;99.90;;;;;;5042452;28;20357;-59
2022/05/02 09:21:06;;;;;;;8.30;5.10;;;34.90;99.90;;;;;;5042169;28;20314;-58
2022/05/02 09:23:57;;;;;;;9.20;5.30;;;35.60;99.90;;;;;;5041767;28;20198;-59
2022/05/02 09:27:08;;;;;;;8.13;6.07;;;36.60;99.90;;;;;;5045573;28;20250;-57
2022/05/02 09:29:35;;;;;;;9.35;5.30;;;35.30;99.90;;;;;;5045741;28;20275;-57
2022/05/02 09:32:18;;;;;;;7.75;5.72;;;34.30;99.90;;;;;;5056359;28;20270;-59
2022/05/02 09:34:50;;;;;;;8.50;6.10;;;35.00;99.90;;;;;;5049943;28;20813;-57
2022/05/02 09:37:26;;;;;;;8.00;5.63;;;35.00;99.90;;;;;;5066535;28;20195;-59
2022/05/02 09:40:07;;;;;;;8.63;5.72;;;35.20;99.90;;;;;;5065765;28;20672;-59
2022/05/02 09:42:35;;;;;;;8.40;6.55;;;34.00;99.90;;;;;;5046671;28;20244;-59
2022/05/02 09:51:37;;;;;;;10.68;6.35;;;33.60;99.90;;;;;;5028590;28;20332;-60
2022/05/02 09:57:35;;;;;;;8.68;6.38;;;32.20;99.90;;;;;;5068459;28;20268;-57
2022/05/02 10:01:06;;;;;;;11.07;6.18;;;33.80;99.90;;;;;;5069801;28;20279;-60
2022/05/02 10:03:33;;;;;;;9.88;6.15;;;35.30;99.90;;;;;;5054431;28;20214;-58
2022/05/02 10:06:11;;;;;;;10.55;6.97;;;33.00;99.90;;;;;;5068214;28;20211;-58
2022/05/02 10:08:50;;;;;;;10.18;7.00;;;29.60;99.90;;;;;;5070571;28;20190;-60
2022/05/02 10:11:23;;;;;;;8.40;6.20;;;30.10;99.90;;;;;;5060892;28;20225;-58
2022/05/02 10:14:27;;;;;;;11.60;6.60;;;31.10;99.90;;;;;;5041491;28;20261;-58
2022/05/02 10:16:57;;;;;;;10.07;6.95;;;32.30;99.90;;;;;;5067107;28;21144;-58
2022/05/02 10:19:36;;;;;;;13.13;7.07;;;31.80;99.90;;;;;;5067374;28;20202;-58
2022/05/02 10:22:10;;;;;;;10.60;5.75;;;32.60;99.90;;;;;;5068723;28;20278;-57
2022/05/02 10:25:10;;;;;;;8.88;6.38;;;34.20;99.90;;;;;;5068012;28;20648;-58
2022/05/02 10:27:59;;;;;;;9.05;6.38;;;33.40;99.90;;;;;;5067123;28;20272;-58
2022/05/02 10:30:39;;;;;;;8.15;7.25;;;31.10;99.90;;;;;;5062672;28;20245;-57
2022/05/02 10:33:15;;;;;;;10.50;6.82;;;28.90;99.90;;;;;;5067749;28;20705;-57
2022/05/02 10:35:46;;;;;;;10.43;7.07;;;28.80;99.90;;;;;;5068709;28;20215;-59
2022/05/02 10:38:25;;;;;;;9.75;7.60;;;30.40;99.90;;;;;;5069957;28;20256;-58
2022/05/02 10:41:01;;;;;;;7.68;6.45;;;30.80;99.90;;;;;;5068761;28;20279;-61
2022/05/02 10:43:35;;;;;;;8.00;7.22;;;29.60;99.90;;;;;;5044864;28;20198;-57
2022/05/02 10:46:02;;;;;;;9.30;6.68;;;29.20;99.90;;;;;;5053393;28;20209;-58
2022/05/02 10:48:49;;;;;;;8.40;7.47;;;29.60;99.90;;;;;;5066976;28;20205;-58
2022/05/02 10:51:32;;;;;;;7.60;6.90;;;30.20;99.90;;;;;;5064178;28;20198;-57
2022/05/02 10:54:05;;;;;;;8.52;6.82;;;29.70;99.90;;;;;;5068787;28;20195;-58
2022/05/02 10:56:44;;;;;;;10.98;7.03;;;29.50;99.90;;;;;;5043600;28;20207;-57
2022/05/02 10:59:13;;;;;;;8.13;7.32;;;31.70;99.90;;;;;;5061451;28;20375;-58
2022/05/02 11:01:45;;;;;;;8.80;6.88;;;31.30;99.90;;;;;;5062762;28;20240;-59
2022/05/02 11:04:54;;;;;;;10.55;6.60;;;31.80;99.90;;;;;;5063402;28;20215;-58
2022/05/02 11:07:28;;;;;;;14.80;7.43;;;30.50;99.90;;;;;;5058352;28;20585;-58
2022/05/02 11:10:07;;;;;;;14.82;7.70;;;30.00;99.90;;;;;;5065622;28;20548;-57
2022/05/02 11:12:40;;;;;;;8.82;7.53;;;28.30;99.90;;;;;;5069299;28;20199;-57
2022/05/02 11:15:18;;;;;;;9.55;6.97;;;27.30;99.90;;;;;;5051263;28;20219;-58
2022/05/02 11:17:54;;;;;;;9.15;6.93;;;27.90;99.90;;;;;;5072998;28;20441;-59
2022/05/02 11:20:59;;;;;;;8.45;7.25;;;30.50;99.90;;;;;;5071695;28;20194;-57
2022/05/02 11:23:55;;;;;;;8.68;7.88;;;30.60;99.90;;;;;;5069203;28;20194;-57
2022/05/02 11:26:43;;;;;;;11.27;7.03;;;29.30;99.90;;;;;;5071513;28;20338;-58
2022/05/02 11:29:50;;;;;;;14.20;7.85;;;30.70;99.90;;;;;;5074143;28;20198;-57
2022/05/02 11:32:59;;;;;;;8.20;7.15;;;31.30;99.90;;;;;;5072339;28;20242;-58
2022/05/02 11:35:30;;;;;;;7.35;6.38;;;30.40;99.90;;;;;;5029818;28;20231;-59
2022/05/02 11:38:31;;;;;;;9.05;8.15;;;30.90;99.90;;;;;;5053069;28;20248;-59
2022/05/02 11:41:06;;;;;;;9.98;7.65;;;29.00;99.90;;;;;;5070634;28;20649;-58
2022/05/02 11:43:38;;;;;;;9.55;7.82;;;27.80;99.90;;;;;;5074753;28;20241;-58
2022/05/02 11:46:20;;;;;;;10.32;7.57;;;27.20;99.90;;;;;;5064974;28;20691;-57
2022/05/02 11:49:09;;;;;;;9.80;8.57;;;26.30;99.90;;;;;;5069622;28;20264;-58
2022/05/02 11:51:50;;;;;;;9.77;8.18;;;25.70;99.90;;;;;;5071883;28;20210;-57
2022/05/02 11:54:34;;;;;;;9.32;7.97;;;26.10;99.90;;;;;;5057511;28;20214;-57
2022/05/02 11:57:42;;;;;;;10.00;8.60;;;26.10;99.90;;;;;;5066324;28;20198;-59
2022/05/02 12:00:12;;;;;;;12.80;7.90;;;26.90;99.90;;;;;;5016799;28;20291;-59
2022/05/02 12:02:45;;;;;;;14.80;8.50;;;28.90;99.90;;;;;;5062966;28;20248;-58
2022/05/02 12:05:18;;;;;;;11.98;7.57;;;28.40;99.90;;;;;;5074718;28;20669;-59
2022/05/02 12:08:00;;;;;;;9.98;6.93;;;27.20;99.90;;;;;;5071680;28;20599;-60
2022/05/02 12:10:40;;;;;;;9.65;7.93;;;27.60;99.90;;;;;;5075355;28;20279;-58
2022/05/02 12:13:13;;;;;;;8.30;7.50;;;27.40;99.90;;;;;;5069612;28;20203;-61
2022/05/02 12:16:03;;;;;;;8.30;6.90;;;26.90;99.90;;;;;;5072537;28;20226;-57
2022/05/02 12:18:41;;;;;;;11.80;7.82;;;28.20;99.90;;;;;;5069032;28;20563;-58
2022/05/02 12:21:17;;;;;;;7.85;7.05;;;27.60;99.90;;;;;;5065150;28;20194;-57
2022/05/02 12:23:45;;;;;;;9.25;7.55;;;26.50;99.90;;;;;;5068080;28;20271;-59
2022/05/02 12:26:19;;;;;;;7.55;6.72;;;26.50;99.90;;;;;;5066442;28;20335;-56
2022/05/02 12:29:00;;;;;;;11.02;7.82;;;27.70;99.90;;;;;;5046050;28;20586;-57
2022/05/02 12:31:30;;;;;;;7.53;6.82;;;27.80;99.90;;;;;;5069945;28;20229;-57
2022/05/02 12:34:07;;;;;;;8.55;7.18;;;26.50;99.90;;;;;;5066429;28;20504;-58
2022/05/02 12:36:34;;;;;;;7.30;6.70;;;26.10;99.90;;;;;;5059834;28;20286;-57
2022/05/02 12:39:04;;;;;;;9.73;6.43;;;27.10;99.90;;;;;;5058767;28;20713;-57
2022/05/02 12:41:47;;;;;;;11.82;7.63;;;27.50;99.90;;;;;;5064978;28;20194;-57
2022/05/02 12:44:16;;;;;;;14.20;6.78;;;26.70;99.90;;;;;;5044379;28;20225;-57
2022/05/02 12:46:48;;;;;;;7.30;6.60;;;26.80;99.90;;;;;;5048081;28;20567;-58
2022/05/02 12:49:28;;;;;;;9.52;7.68;;;26.80;99.90;;;;;;5064756;28;20191;-59
2022/05/02 12:51:56;;;;;;;11.15;8.85;;;25.90;99.90;;;;;;5066753;28;20227;-56
2022/05/02 12:54:27;;;;;;;10.43;7.40;;;25.00;99.90;;;;;;5062456;28;20310;-57
2022/05/02 13:02:53;;;;;;;10.50;7.80;;;23.70;99.90;;;;;;5069110;28;20206;-58
2022/05/02 13:05:23;;;;;;;21.58;8.77;;;23.60;99.90;;;;;;5067582;28;20191;-58
2022/05/02 13:07:53;;;;;;;10.77;7.25;;;24.30;99.90;;;;;;5069454;28;20249;-59
2022/05/02 13:10:23;;;;;;;43.40;9.63;;;24.90;99.90;;;;;;5066495;28;21110;-57
2022/05/02 13:13:03;;;;;;;11.15;7.03;;;25.10;99.90;;;;;;5067626;28;20221;-57
2022/05/02 13:15:48;;;;;;;8.65;6.72;;;25.40;99.90;;;;;;5067827;28;20873;-59
2022/05/02 13:18:22;;;;;;;10.38;7.28;;;25.80;99.90;;;;;;5067822;28;20287;-57
2022/05/02 13:21:11;;;;;;;11.57;7.95;;;26.10;99.90;;;;;;5063924;28;20198;-59
2022/05/02 13:23:40;;;;;;;9.82;6.95;;;25.80;99.90;;;;;;5066154;28;20195;-58
2022/05/02 13:26:38;;;;;;;9.13;7.63;;;25.50;99.90;;;;;;5050990;28;20297;-57
2022/05/02 13:29:16;;;;;;;9.35;7.20;;;24.50;99.90;;;;;;5068482;28;20191;-57
2022/05/02 13:32:03;;;;;;;7.68;6.60;;;24.70;99.90;;;;;;5053011;28;20803;-58
2022/05/02 13:34:43;;;;;;;9.85;6.35;;;24.70;99.90;;;;;;5047520;28;20530;-58
2022/05/02 13:37:15;;;;;;;8.30;7.40;;;24.70;99.90;;;;;;5047061;28;20219;-58
2022/05/02 13:40:08;;;;;;;10.13;7.38;;;23.90;99.90;;;;;;5067120;28;20776;-58
2022/05/02 13:43:34;;;;;;;8.38;7.20;;;23.60;99.90;;;;;;5066148;28;20248;-58
2022/05/02 13:46:16;;;;;;;8.93;6.50;;;24.00;99.90;;;;;;5037842;28;20215;-59
2022/05/02 13:49:26;;;;;;;9.88;7.55;;;24.60;99.90;;;;;;5038130;28;20183;-59
2022/05/02 13:52:14;;;;;;;11.32;8.02;;;24.00;99.90;;;;;;5068214;28;20229;-59
2022/05/02 13:54:50;;;;;;;9.73;7.68;;;24.20;99.90;;;;;;5070027;28;20256;-61
2022/05/02 13:57:44;;;;;;;9.65;7.00;;;24.40;99.90;;;;;;5070902;28;20260;-59
2022/05/02 14:03:15;;;;;;;7.50;6.70;;;24.50;99.90;;;;;;5069810;28;20218;-60